createdAt,value
2018-09-18T05:22:53.436Z,3.37
2018-09-18T05:25:22.201Z,3.80
2018-09-18T05:27:50.911Z,3.53
2018-09-18T05:30:19.410Z,3.07
2018-09-18T05:32:47.923Z,3.60
2018-09-18T05:35:16.519Z,3.40
2018-09-18T05:37:45.051Z,2.67
2018-09-18T05:40:13.599Z,2.90
2018-09-18T05:42:42.152Z,3.03
2018-09-18T05:45:10.752Z,3.83
2018-09-18T05:47:39.309Z,3.60
2018-09-18T05:50:07.776Z,2.97
2018-09-18T05:52:36.393Z,3.53
2018-09-18T05:55:04.952Z,3.30
2018-09-18T05:57:33.546Z,3.53
2018-09-18T06:00:02.129Z,3.67
2018-09-18T06:02:31.104Z,3.63
2018-09-18T06:04:59.703Z,3.70
2018-09-18T06:07:28.331Z,3.47
2018-09-18T06:09:56.897Z,3.80
2018-09-18T06:12:25.750Z,3.60
2018-09-18T06:14:54.187Z,3.70
2018-09-18T06:17:22.770Z,3.37
2018-09-18T06:19:51.306Z,3.63
2018-09-18T06:22:19.917Z,3.63
2018-09-18T06:24:48.556Z,3.73
2018-09-18T06:27:17.183Z,4.00
2018-09-18T06:29:45.768Z,3.60
2018-09-18T06:32:14.341Z,3.87
2018-09-18T06:34:43.089Z,4.00
2018-09-18T06:37:11.754Z,3.80
2018-09-18T06:39:40.478Z,4.37
2018-09-18T06:42:09.369Z,3.90
2018-09-18T06:44:38.191Z,4.17
2018-09-18T06:47:08.040Z,4.50
2018-09-18T06:49:36.592Z,4.63
2018-09-18T06:52:05.785Z,4.77
2018-09-18T06:54:34.446Z,4.17
2018-09-18T06:57:03.026Z,4.43
2018-09-18T06:59:31.588Z,4.43
2018-09-18T07:02:00.181Z,4.50
2018-09-18T07:04:28.682Z,4.23
2018-09-18T07:06:57.217Z,4.23
2018-09-18T07:09:25.715Z,4.57
2018-09-18T07:11:54.232Z,4.50
2018-09-18T07:14:22.787Z,4.20
2018-09-18T07:16:51.307Z,4.73
2018-09-18T07:19:20.106Z,4.83
2018-09-18T07:21:48.725Z,4.17
2018-09-18T07:24:17.310Z,4.30
2018-09-18T07:26:46.712Z,4.47
2018-09-18T07:29:15.578Z,3.83
2018-09-18T07:31:44.102Z,4.73
2018-09-18T07:34:12.657Z,4.87
2018-09-18T07:36:41.151Z,4.07
2018-09-18T07:39:11.089Z,4.40
2018-09-18T07:41:39.537Z,4.83
2018-09-18T07:44:08.224Z,4.40
2018-09-18T07:46:36.825Z,4.97
2018-09-18T07:49:06.037Z,5.15
2018-09-18T07:51:35.412Z,4.75
2018-09-18T07:54:04.067Z,4.95
2018-09-18T07:56:32.717Z,3.95
2018-09-18T07:59:02.636Z,4.75
2018-09-18T08:01:32.170Z,4.58
2018-09-18T08:04:00.821Z,4.78
2018-09-18T08:06:29.392Z,4.37
2018-09-18T08:08:58.300Z,4.20
2018-09-18T08:11:26.837Z,4.45
2018-09-18T08:13:55.398Z,4.42
2018-09-18T08:16:24.047Z,4.30
2018-09-18T08:18:52.861Z,4.55
2018-09-18T08:21:21.264Z,4.50
2018-09-18T08:23:49.876Z,4.42
2018-09-18T08:26:18.352Z,5.00
2018-09-18T08:28:47.076Z,4.17
2018-09-18T08:31:15.609Z,4.30
2018-09-18T08:33:44.107Z,4.33
2018-09-18T08:36:12.784Z,4.37
2018-09-18T08:38:41.331Z,4.40
2018-09-18T08:41:10.395Z,3.80
2018-09-18T08:43:38.992Z,4.15
2018-09-18T08:46:07.714Z,4.17
2018-09-18T08:48:36.401Z,4.40
2018-09-18T08:51:05.043Z,4.70
2018-09-18T08:53:33.672Z,4.67
2018-09-18T08:56:02.551Z,4.53
2018-09-18T08:58:31.204Z,4.37
2018-09-18T09:00:59.973Z,4.35
2018-09-18T09:03:28.561Z,4.33
2018-09-18T09:05:57.200Z,4.40
2018-09-18T09:08:25.841Z,4.30
2018-09-18T09:10:54.531Z,4.20
2018-09-18T09:13:23.357Z,4.70
2018-09-18T09:15:51.930Z,4.45
2018-09-18T09:18:20.610Z,3.98
2018-09-18T09:20:49.156Z,4.80
2018-09-18T09:23:17.754Z,4.40
2018-09-18T09:25:46.403Z,4.58
2018-09-18T09:28:15.010Z,4.47
2018-09-18T09:30:43.856Z,4.58
2018-09-18T09:33:12.682Z,4.22
2018-09-18T09:35:41.300Z,4.67
2018-09-18T09:38:09.914Z,4.78
2018-09-18T09:40:38.572Z,4.80
2018-09-18T09:43:07.343Z,4.72
2018-09-18T09:45:35.937Z,4.47
2018-09-18T09:48:04.501Z,4.15
2018-09-18T09:50:33.159Z,4.58
2018-09-18T09:53:01.686Z,4.75
2018-09-18T09:55:32.524Z,4.72
2018-09-18T09:58:01.169Z,4.47
2018-09-18T10:00:34.950Z,4.83
2018-09-18T10:03:03.598Z,4.40
2018-09-18T10:05:32.315Z,4.70
2018-09-18T10:08:00.998Z,4.45
2018-09-18T10:10:29.747Z,4.70
2018-09-18T10:12:58.261Z,4.70
2018-09-18T10:15:26.935Z,4.85
2018-09-18T10:17:55.647Z,5.22
2018-09-18T10:20:24.267Z,5.08
2018-09-18T10:22:52.876Z,4.97
2018-09-18T10:25:21.489Z,5.12
2018-09-18T10:27:50.065Z,4.80
2018-09-18T10:30:18.759Z,5.15
2018-09-18T10:32:47.449Z,4.95
2018-09-18T10:35:15.958Z,5.35
2018-09-18T10:37:44.961Z,5.37
2018-09-18T10:40:13.644Z,5.20
2018-09-18T10:42:42.292Z,5.58
2018-09-18T10:45:11.054Z,5.42
2018-09-18T10:47:39.686Z,5.45
2018-09-18T10:50:08.374Z,5.17
2018-09-18T10:52:36.949Z,5.42
2018-09-18T10:55:05.493Z,5.30
2018-09-18T10:57:34.123Z,5.50
2018-09-18T11:00:02.722Z,5.17
2018-09-18T11:02:31.259Z,5.62
2018-09-18T11:04:59.844Z,5.12
2018-09-18T11:07:28.389Z,5.37
2018-09-18T11:09:57.257Z,5.97
2018-09-18T11:12:25.928Z,5.33
2018-09-18T11:14:54.556Z,5.40
2018-09-18T11:17:23.126Z,5.55
2018-09-18T11:19:51.799Z,5.75
2018-09-18T11:22:20.470Z,5.95
2018-09-18T11:24:49.018Z,5.42
2018-09-18T11:27:17.510Z,5.25
2018-09-18T17:03:58.671Z,3.47
2018-09-18T17:06:27.172Z,2.90
2018-09-18T17:08:56.019Z,2.63
2018-09-18T17:11:24.756Z,2.97
2018-09-18T17:13:53.408Z,2.93
2018-09-18T17:16:22.968Z,3.00
2018-09-18T17:18:51.604Z,3.07
2018-09-18T17:21:20.458Z,2.83
2018-09-18T17:23:49.210Z,7.30
2018-09-18T17:26:18.106Z,3.13
2018-09-18T17:28:50.231Z,3.37
2018-09-18T17:31:18.905Z,4.10
2018-09-18T17:33:47.553Z,4.90
2018-09-18T17:36:16.280Z,3.90
2018-09-18T17:38:44.833Z,3.63
2018-09-18T17:41:13.507Z,3.37
2018-09-18T17:43:42.176Z,3.00
2018-09-18T17:46:10.879Z,3.60
2018-09-18T17:48:39.357Z,3.70
2018-09-18T17:51:08.129Z,3.53
2018-09-18T17:53:36.787Z,4.53
2018-09-18T17:56:05.300Z,4.17
2018-09-18T17:58:34.384Z,3.70
2018-09-18T18:01:02.916Z,4.90
2018-09-18T18:03:31.382Z,4.33
2018-09-18T18:05:59.939Z,4.63
2018-09-18T18:08:28.567Z,4.63
2018-09-18T18:10:57.055Z,4.30
2018-09-18T18:13:25.605Z,4.50
2018-09-18T18:15:54.400Z,5.57
2018-09-18T18:18:22.954Z,5.40
2018-09-18T18:20:51.590Z,5.23
2018-09-18T18:23:20.119Z,4.40
2018-09-18T18:25:48.733Z,4.17
2018-09-18T18:28:17.283Z,5.00
2018-09-18T18:30:46.777Z,4.10
2018-09-18T18:33:15.395Z,4.53
2018-09-18T18:35:43.991Z,4.40
2018-09-18T18:38:12.539Z,4.30
2018-09-18T18:40:42.078Z,4.93
2018-09-18T18:43:10.484Z,4.67
2018-09-18T18:45:39.049Z,5.10
2018-09-18T18:48:07.668Z,4.33
2018-09-18T18:50:36.087Z,4.70
2018-09-18T18:53:04.602Z,5.13
2018-09-18T18:55:33.099Z,4.60
2018-09-18T18:58:01.649Z,5.50
2018-09-18T19:00:30.294Z,5.27
2018-09-18T19:02:58.946Z,5.57
2018-09-18T19:05:27.763Z,5.10
2018-09-18T19:07:56.354Z,6.10
2018-09-18T19:10:24.891Z,4.07
2018-09-18T19:12:53.384Z,4.33
2018-09-18T19:15:21.961Z,5.07
2018-09-18T19:17:50.420Z,4.30
2018-09-18T19:20:18.916Z,4.60
2018-09-18T19:22:47.515Z,5.03
2018-09-18T19:25:16.063Z,3.80
2018-09-18T19:27:44.695Z,4.77
2018-09-18T19:30:13.549Z,4.60
2018-09-18T19:32:42.140Z,5.03
2018-09-18T19:35:10.653Z,5.33
2018-09-18T19:37:39.260Z,6.77
2018-09-18T19:40:07.711Z,6.13
2018-09-18T19:42:36.314Z,6.07
2018-09-18T19:45:04.974Z,5.50
2018-09-18T19:47:33.871Z,5.53
2018-09-18T19:50:02.341Z,9.10
2018-09-18T19:52:32.744Z,7.23
2018-09-18T19:55:01.272Z,6.57
2018-09-18T19:57:29.805Z,7.83
2018-09-18T19:59:58.305Z,12.97
2018-09-18T20:02:26.750Z,6.13
2018-09-18T20:04:55.241Z,5.23
2018-09-18T20:07:26.137Z,9.73
2018-09-18T20:09:54.810Z,5.33
2018-09-18T20:12:23.289Z,6.57
2018-09-18T20:14:56.090Z,8.30
2018-09-18T20:17:31.309Z,5.27
2018-09-18T20:19:59.888Z,6.07
2018-09-18T20:22:28.404Z,6.87
2018-09-18T20:24:57.585Z,5.80
2018-09-18T20:27:28.214Z,6.17
2018-09-18T20:29:56.722Z,8.77
2018-09-18T20:32:27.263Z,7.37
2018-09-18T20:34:55.729Z,5.83
2018-09-18T20:37:24.251Z,5.67
2018-09-18T20:39:52.950Z,8.27
2018-09-18T20:42:21.917Z,6.87
2018-09-18T20:44:51.388Z,4.60
2018-09-18T20:47:19.851Z,5.07
2018-09-18T20:49:48.333Z,5.30
2018-09-18T20:52:16.802Z,6.60
2018-09-18T20:54:45.235Z,4.53
2018-09-18T20:57:14.394Z,5.10
2018-09-18T20:59:42.883Z,5.30
2018-09-18T21:02:15.102Z,5.60
2018-09-18T21:04:45.419Z,4.90
2018-09-18T21:07:13.955Z,4.60
2018-09-18T21:09:42.575Z,4.50
2018-09-18T21:12:13.267Z,4.97
2018-09-18T21:14:41.777Z,5.40
2018-09-18T21:17:10.267Z,5.33
2018-09-18T21:19:38.714Z,5.57
2018-09-18T21:22:07.193Z,4.90
2018-09-18T21:24:35.622Z,5.60
2018-09-18T21:27:04.088Z,5.13
2018-09-18T21:29:32.530Z,4.80
2018-09-18T21:32:01.215Z,5.43
2018-09-18T21:34:29.636Z,5.47
2018-09-18T21:36:58.104Z,5.73
2018-09-18T21:39:26.633Z,5.70
2018-09-18T21:41:55.152Z,4.93
2018-09-18T21:44:23.683Z,5.27
2018-09-18T21:46:52.286Z,5.50
2018-09-18T21:49:20.708Z,5.50
2018-09-18T21:51:49.194Z,4.93
2018-09-18T21:54:17.653Z,5.30
2018-09-18T21:56:46.152Z,5.27
2018-09-18T21:59:14.634Z,5.47
2018-09-18T22:01:43.142Z,4.97
2018-09-18T22:04:11.668Z,5.27
2018-09-18T22:06:40.268Z,4.67
2018-09-18T22:09:08.737Z,5.47
2018-09-18T22:11:37.204Z,4.90
2018-09-18T22:14:05.846Z,4.83
2018-09-18T22:16:34.357Z,4.80
2018-09-18T22:19:02.876Z,5.17
2018-09-18T22:21:31.333Z,5.40
2018-09-18T22:23:59.861Z,4.90
2018-09-18T22:26:28.321Z,4.80
2018-09-18T22:28:56.796Z,5.07
2018-09-18T22:31:25.335Z,5.23
2018-09-18T22:33:53.866Z,5.00
2018-09-18T22:36:22.361Z,5.03
2018-09-18T22:38:50.896Z,5.27
2018-09-18T22:41:19.373Z,5.17
2018-09-18T22:43:47.897Z,5.23
2018-09-18T22:46:16.427Z,5.40
2018-09-18T22:48:44.899Z,6.37
2018-09-18T22:51:13.380Z,5.77
2018-09-18T22:53:42.083Z,6.00
2018-09-18T22:56:10.755Z,5.93
2018-09-18T22:58:39.359Z,6.00
2018-09-18T23:01:07.815Z,5.40
2018-09-18T23:03:36.380Z,5.77
2018-09-18T23:06:04.867Z,5.57
2018-09-18T23:08:33.426Z,6.03
2018-09-18T23:11:02.199Z,6.40
2018-09-18T23:13:30.739Z,5.43
2018-09-18T23:15:59.238Z,5.67
2018-09-18T23:18:27.803Z,6.03
2018-09-18T23:20:56.331Z,6.00
2018-09-18T23:23:24.888Z,5.47
2018-09-18T23:25:53.371Z,5.40
2018-09-18T23:28:21.893Z,4.83
2018-09-18T23:30:50.446Z,5.70
2018-09-18T23:33:18.909Z,5.63
2018-09-18T23:35:47.402Z,5.20
2018-09-18T23:38:15.939Z,5.93
2018-09-18T23:40:44.535Z,5.97
2018-09-18T23:43:12.983Z,5.80
2018-09-18T23:45:41.465Z,6.23
2018-09-18T23:48:10.073Z,5.97
2018-09-18T23:50:38.501Z,6.00
2018-09-18T23:53:07.168Z,5.33
2018-09-18T23:55:35.755Z,5.10
2018-09-18T23:58:04.277Z,5.40
